Terminal Aerodrome Forecast
Issued by NWS

Home | Current Version | Previous Version | Text Only | Print | Product List | Glossary On
Versions: 1 2 3 4 5 6 7 8 9 10 11 12 13 14 15 16
000
FTUS44 KBMX 020500
TAFTOI
TAF
KTOI 020520Z 0206/0306 03003KT 5SM BR BKN120
      TEMPO 0210/0214 3SM BR BKN015
     FM021400 04006KT P6SM VCSH BKN015
     FM021700 04007KT P6SM VCTS BKN035CB=

USA.gov is the U.S. government's official web portal to all federal, state and local government web resources and services.